Terminal Aerodrome Forecast
Issued by NWS

Home | Current Version | Previous Version | Text Only | Print | Product List | Glossary On
Versions: 1 2 3 4 5 6 7 8 9 10 11 12 13 14 15 16 17 18
000
FTUS43 KAPX 290500
TAFPLN
TAF
KPLN 290520Z 2906/3006 00000KT P6SM BKN250
     FM291400 15006KT P6SM -RA OVC035
     FM292000 15006KT P6SM VCSH OVC040
     FM300000 17003KT P6SM BKN080=

USA.gov is the U.S. government's official web portal to all federal, state and local government web resources and services.